sensor_id;sensor_type;location;lat;lon;timestamp;P1;durP1;ratioP1;P2;durP2;ratioP2
49614;SDS011;35517;45.272;9.984;2022-12-18T00:01:22;91.00;;;19.60;;
49614;SDS011;35517;45.272;9.984;2022-12-18T00:03:50;75.22;;;18.80;;
49614;SDS011;35517;45.272;9.984;2022-12-18T00:06:17;90.40;;;19.27;;
49614;SDS011;35517;45.272;9.984;2022-12-18T00:08:44;70.20;;;21.15;;
49614;SDS011;35517;45.272;9.984;2022-12-18T00:11:13;64.93;;;19.65;;
49614;SDS011;35517;45.272;9.984;2022-12-18T00:13:40;108.45;;;21.10;;
49614;SDS011;35517;45.272;9.984;2022-12-18T00:16:07;49.53;;;18.35;;
49614;SDS011;35517;45.272;9.984;2022-12-18T00:18:34;57.47;;;20.35;;
49614;SDS011;35517;45.272;9.984;2022-12-18T00:21:02;68.28;;;21.67;;
49614;SDS011;35517;45.272;9.984;2022-12-18T00:23:29;77.95;;;20.48;;
49614;SDS011;35517;45.272;9.984;2022-12-18T00:25:59;83.78;;;22.30;;
49614;SDS011;35517;45.272;9.984;2022-12-18T00:28:26;87.78;;;21.05;;
49614;SDS011;35517;45.272;9.984;2022-12-18T00:31:03;92.63;;;20.13;;
49614;SDS011;35517;45.272;9.984;2022-12-18T00:33:30;77.22;;;21.38;;
49614;SDS011;35517;45.272;9.984;2022-12-18T00:38:31;207.85;;;27.83;;
49614;SDS011;35517;45.272;9.984;2022-12-18T00:40:58;150.98;;;25.35;;
49614;SDS011;35517;45.272;9.984;2022-12-18T00:43:24;160.00;;;26.48;;
49614;SDS011;35517;45.272;9.984;2022-12-18T00:45:52;220.98;;;31.40;;
49614;SDS011;35517;45.272;9.984;2022-12-18T00:48:19;167.95;;;25.60;;
49614;SDS011;35517;45.272;9.984;2022-12-18T00:50:47;204.10;;;27.33;;
49614;SDS011;35517;45.272;9.984;2022-12-18T00:53:13;270.55;;;29.65;;
49614;SDS011;35517;45.272;9.984;2022-12-18T00:55:40;222.75;;;29.35;;
49614;SDS011;35517;45.272;9.984;2022-12-18T00:58:07;201.05;;;27.27;;
49614;SDS011;35517;45.272;9.984;2022-12-18T01:00:34;190.75;;;26.63;;
49614;SDS011;35517;45.272;9.984;2022-12-18T01:03:01;230.07;;;27.95;;
49614;SDS011;35517;45.272;9.984;2022-12-18T01:05:28;148.23;;;25.65;;
49614;SDS011;35517;45.272;9.984;2022-12-18T01:07:55;213.65;;;27.35;;
49614;SDS011;35517;45.272;9.984;2022-12-18T01:10:22;197.10;;;28.52;;
49614;SDS011;35517;45.272;9.984;2022-12-18T01:12:49;252.05;;;32.65;;
49614;SDS011;35517;45.272;9.984;2022-12-18T01:15:17;167.65;;;26.15;;
49614;SDS011;35517;45.272;9.984;2022-12-18T01:17:44;263.90;;;30.65;;
49614;SDS011;35517;45.272;9.984;2022-12-18T01:20:11;242.98;;;28.75;;
49614;SDS011;35517;45.272;9.984;2022-12-18T01:22:38;177.65;;;26.58;;
49614;SDS011;35517;45.272;9.984;2022-12-18T01:25:06;189.18;;;25.48;;
49614;SDS011;35517;45.272;9.984;2022-12-18T01:27:33;146.70;;;26.98;;
49614;SDS011;35517;45.272;9.984;2022-12-18T01:30:03;249.20;;;28.63;;
49614;SDS011;35517;45.272;9.984;2022-12-18T01:32:30;202.13;;;26.75;;
49614;SDS011;35517;45.272;9.984;2022-12-18T01:34:57;148.57;;;26.35;;
49614;SDS011;35517;45.272;9.984;2022-12-18T01:37:24;166.10;;;25.42;;
49614;SDS011;35517;45.272;9.984;2022-12-18T01:39:51;125.72;;;23.25;;
49614;SDS011;35517;45.272;9.984;2022-12-18T01:42:20;133.45;;;24.52;;
49614;SDS011;35517;45.272;9.984;2022-12-18T01:47:49;147.57;;;24.17;;
49614;SDS011;35517;45.272;9.984;2022-12-18T01:50:23;173.90;;;30.00;;
49614;SDS011;35517;45.272;9.984;2022-12-18T01:55:26;214.65;;;28.85;;
49614;SDS011;35517;45.272;9.984;2022-12-18T01:57:56;142.75;;;25.52;;
49614;SDS011;35517;45.272;9.984;2022-12-18T02:00:24;264.73;;;34.92;;
49614;SDS011;35517;45.272;9.984;2022-12-18T02:02:52;249.35;;;30.67;;
49614;SDS011;35517;45.272;9.984;2022-12-18T02:05:22;112.88;;;23.75;;
49614;SDS011;35517;45.272;9.984;2022-12-18T02:08:54;114.43;;;24.65;;
49614;SDS011;35517;45.272;9.984;2022-12-18T02:10:48;115.05;;;25.20;;
49614;SDS011;35517;45.272;9.984;2022-12-18T02:13:36;109.20;;;24.27;;
49614;SDS011;35517;45.272;9.984;2022-12-18T02:18:36;137.13;;;24.65;;
49614;SDS011;35517;45.272;9.984;2022-12-18T02:24:01;88.13;;;24.73;;
49614;SDS011;35517;45.272;9.984;2022-12-18T02:26:34;94.88;;;23.55;;
49614;SDS011;35517;45.272;9.984;2022-12-18T02:31:35;138.82;;;25.00;;
49614;SDS011;35517;45.272;9.984;2022-12-18T02:34:03;155.13;;;24.00;;
49614;SDS011;35517;45.272;9.984;2022-12-18T02:36:36;66.50;;;22.85;;
49614;SDS011;35517;45.272;9.984;2022-12-18T02:39:04;75.65;;;21.33;;
49614;SDS011;35517;45.272;9.984;2022-12-18T02:41:32;134.50;;;26.10;;
49614;SDS011;35517;45.272;9.984;2022-12-18T02:44:06;74.53;;;22.92;;
49614;SDS011;35517;45.272;9.984;2022-12-18T02:46:34;74.32;;;21.80;;
49614;SDS011;35517;45.272;9.984;2022-12-18T02:49:25;72.07;;;21.85;;
49614;SDS011;35517;45.272;9.984;2022-12-18T02:59:53;93.68;;;23.70;;
49614;SDS011;35517;45.272;9.984;2022-12-18T03:02:27;105.88;;;24.92;;
49614;SDS011;35517;45.272;9.984;2022-12-18T03:05:08;258.35;;;34.22;;
49614;SDS011;35517;45.272;9.984;2022-12-18T03:07:57;92.53;;;26.20;;
49614;SDS011;35517;45.272;9.984;2022-12-18T03:10:28;89.05;;;24.52;;
49614;SDS011;35517;45.272;9.984;2022-12-18T03:13:04;68.30;;;25.85;;
49614;SDS011;35517;45.272;9.984;2022-12-18T03:15:37;136.13;;;25.42;;
49614;SDS011;35517;45.272;9.984;2022-12-18T03:18:10;99.45;;;27.20;;
49614;SDS011;35517;45.272;9.984;2022-12-18T03:20:39;114.72;;;25.88;;
49614;SDS011;35517;45.272;9.984;2022-12-18T03:23:11;98.95;;;24.17;;
49614;SDS011;35517;45.272;9.984;2022-12-18T03:25:45;93.60;;;27.48;;
49614;SDS011;35517;45.272;9.984;2022-12-18T03:28:14;218.43;;;35.03;;
49614;SDS011;35517;45.272;9.984;2022-12-18T03:30:43;110.53;;;26.55;;
49614;SDS011;35517;45.272;9.984;2022-12-18T03:33:12;92.13;;;25.63;;
49614;SDS011;35517;45.272;9.984;2022-12-18T03:35:45;104.50;;;25.67;;
49614;SDS011;35517;45.272;9.984;2022-12-18T03:38:12;95.28;;;26.90;;
49614;SDS011;35517;45.272;9.984;2022-12-18T03:40:51;117.85;;;27.27;;
49614;SDS011;35517;45.272;9.984;2022-12-18T03:43:43;75.10;;;25.42;;
49614;SDS011;35517;45.272;9.984;2022-12-18T03:46:11;91.65;;;25.45;;
49614;SDS011;35517;45.272;9.984;2022-12-18T03:48:43;127.35;;;27.60;;
49614;SDS011;35517;45.272;9.984;2022-12-18T03:51:18;100.28;;;27.88;;
49614;SDS011;35517;45.272;9.984;2022-12-18T03:56:22;109.43;;;26.17;;
49614;SDS011;35517;45.272;9.984;2022-12-18T03:58:51;168.13;;;28.88;;
49614;SDS011;35517;45.272;9.984;2022-12-18T04:01:23;121.80;;;22.27;;
49614;SDS011;35517;45.272;9.984;2022-12-18T04:03:52;116.65;;;24.30;;
49614;SDS011;35517;45.272;9.984;2022-12-18T04:06:19;134.50;;;26.17;;
49614;SDS011;35517;45.272;9.984;2022-12-18T04:08:46;138.88;;;25.27;;
49614;SDS011;35517;45.272;9.984;2022-12-18T04:11:16;96.43;;;23.15;;
49614;SDS011;35517;45.272;9.984;2022-12-18T04:13:44;154.57;;;26.33;;
49614;SDS011;35517;45.272;9.984;2022-12-18T04:16:19;106.28;;;25.08;;
49614;SDS011;35517;45.272;9.984;2022-12-18T04:18:49;110.30;;;23.95;;
49614;SDS011;35517;45.272;9.984;2022-12-18T04:21:17;103.25;;;23.75;;
49614;SDS011;35517;45.272;9.984;2022-12-18T04:23:46;69.13;;;21.92;;
49614;SDS011;35517;45.272;9.984;2022-12-18T04:26:13;96.85;;;21.85;;
49614;SDS011;35517;45.272;9.984;2022-12-18T04:29:02;144.70;;;24.77;;
49614;SDS011;35517;45.272;9.984;2022-12-18T04:31:29;83.15;;;21.48;;
49614;SDS011;35517;45.272;9.984;2022-12-18T04:33:56;135.32;;;23.38;;
49614;SDS011;35517;45.272;9.984;2022-12-18T04:36:22;116.28;;;22.98;;
49614;SDS011;35517;45.272;9.984;2022-12-18T04:38:53;150.30;;;23.38;;
49614;SDS011;35517;45.272;9.984;2022-12-18T04:41:20;117.35;;;23.83;;
49614;SDS011;35517;45.272;9.984;2022-12-18T04:43:48;100.60;;;23.13;;
49614;SDS011;35517;45.272;9.984;2022-12-18T04:46:15;159.57;;;23.50;;
49614;SDS011;35517;45.272;9.984;2022-12-18T04:48:41;90.45;;;23.30;;
49614;SDS011;35517;45.272;9.984;2022-12-18T04:51:08;78.43;;;23.20;;
49614;SDS011;35517;45.272;9.984;2022-12-18T04:53:34;117.00;;;23.05;;
49614;SDS011;35517;45.272;9.984;2022-12-18T04:56:02;134.73;;;23.02;;
49614;SDS011;35517;45.272;9.984;2022-12-18T04:58:29;112.45;;;23.67;;
49614;SDS011;35517;45.272;9.984;2022-12-18T05:00:56;92.95;;;23.83;;
49614;SDS011;35517;45.272;9.984;2022-12-18T05:03:22;96.35;;;21.13;;
49614;SDS011;35517;45.272;9.984;2022-12-18T05:05:49;90.90;;;20.02;;
49614;SDS011;35517;45.272;9.984;2022-12-18T05:08:17;103.35;;;21.67;;
49614;SDS011;35517;45.272;9.984;2022-12-18T05:10:43;87.18;;;20.60;;
49614;SDS011;35517;45.272;9.984;2022-12-18T05:13:10;71.28;;;19.48;;
49614;SDS011;35517;45.272;9.984;2022-12-18T05:15:36;103.88;;;21.05;;
49614;SDS011;35517;45.272;9.984;2022-12-18T05:18:03;61.15;;;19.90;;
49614;SDS011;35517;45.272;9.984;2022-12-18T05:20:30;116.20;;;20.92;;
49614;SDS011;35517;45.272;9.984;2022-12-18T05:22:57;49.13;;;20.00;;
49614;SDS011;35517;45.272;9.984;2022-12-18T05:25:24;58.78;;;19.33;;
49614;SDS011;35517;45.272;9.984;2022-12-18T05:27:50;77.75;;;19.65;;
49614;SDS011;35517;45.272;9.984;2022-12-18T05:30:17;75.22;;;18.80;;
49614;SDS011;35517;45.272;9.984;2022-12-18T05:32:44;68.32;;;19.33;;
49614;SDS011;35517;45.272;9.984;2022-12-18T05:35:10;77.95;;;21.02;;
49614;SDS011;35517;45.272;9.984;2022-12-18T05:37:37;77.22;;;22.48;;
49614;SDS011;35517;45.272;9.984;2022-12-18T05:40:04;120.55;;;25.33;;
49614;SDS011;35517;45.272;9.984;2022-12-18T05:42:30;63.88;;;21.65;;
49614;SDS011;35517;45.272;9.984;2022-12-18T05:44:57;53.72;;;22.27;;
49614;SDS011;35517;45.272;9.984;2022-12-18T05:47:24;54.75;;;18.95;;
49614;SDS011;35517;45.272;9.984;2022-12-18T05:49:50;67.07;;;23.08;;
49614;SDS011;35517;45.272;9.984;2022-12-18T05:52:17;68.80;;;23.98;;
49614;SDS011;35517;45.272;9.984;2022-12-18T05:54:43;75.55;;;25.30;;
49614;SDS011;35517;45.272;9.984;2022-12-18T05:57:10;96.00;;;26.75;;
49614;SDS011;35517;45.272;9.984;2022-12-18T05:59:36;134.48;;;26.45;;
49614;SDS011;35517;45.272;9.984;2022-12-18T06:02:03;103.38;;;27.27;;
49614;SDS011;35517;45.272;9.984;2022-12-18T06:04:29;80.45;;;23.20;;
49614;SDS011;35517;45.272;9.984;2022-12-18T06:06:56;127.05;;;23.63;;
49614;SDS011;35517;45.272;9.984;2022-12-18T06:09:23;90.50;;;25.00;;
49614;SDS011;35517;45.272;9.984;2022-12-18T06:11:50;96.93;;;24.75;;
49614;SDS011;35517;45.272;9.984;2022-12-18T06:14:17;101.38;;;23.00;;
49614;SDS011;35517;45.272;9.984;2022-12-18T06:16:44;95.60;;;24.55;;
49614;SDS011;35517;45.272;9.984;2022-12-18T06:19:17;58.75;;;24.90;;
49614;SDS011;35517;45.272;9.984;2022-12-18T06:21:43;68.55;;;23.50;;
49614;SDS011;35517;45.272;9.984;2022-12-18T06:24:10;59.25;;;22.98;;
49614;SDS011;35517;45.272;9.984;2022-12-18T06:26:43;53.53;;;21.90;;
49614;SDS011;35517;45.272;9.984;2022-12-18T06:29:09;62.42;;;22.52;;
49614;SDS011;35517;45.272;9.984;2022-12-18T06:31:36;39.80;;;21.85;;
49614;SDS011;35517;45.272;9.984;2022-12-18T06:34:03;56.03;;;22.45;;
49614;SDS011;35517;45.272;9.984;2022-12-18T06:36:30;45.42;;;20.75;;
49614;SDS011;35517;45.272;9.984;2022-12-18T06:38:57;40.95;;;20.75;;
49614;SDS011;35517;45.272;9.984;2022-12-18T06:41:30;44.10;;;20.30;;
49614;SDS011;35517;45.272;9.984;2022-12-18T06:43:57;45.70;;;21.63;;
49614;SDS011;35517;45.272;9.984;2022-12-18T06:46:24;41.42;;;20.90;;
49614;SDS011;35517;45.272;9.984;2022-12-18T06:48:51;39.00;;;20.80;;
49614;SDS011;35517;45.272;9.984;2022-12-18T06:51:18;53.00;;;23.20;;
49614;SDS011;35517;45.272;9.984;2022-12-18T06:53:45;47.50;;;22.17;;
49614;SDS011;35517;45.272;9.984;2022-12-18T06:56:13;53.67;;;22.40;;
49614;SDS011;35517;45.272;9.984;2022-12-18T06:58:40;44.95;;;21.92;;
49614;SDS011;35517;45.272;9.984;2022-12-18T07:01:08;44.50;;;21.33;;
49614;SDS011;35517;45.272;9.984;2022-12-18T07:03:40;48.05;;;23.63;;
49614;SDS011;35517;45.272;9.984;2022-12-18T07:06:12;53.72;;;23.33;;
49614;SDS011;35517;45.272;9.984;2022-12-18T07:08:41;52.15;;;22.70;;
49614;SDS011;35517;45.272;9.984;2022-12-18T07:11:07;53.55;;;21.45;;
49614;SDS011;35517;45.272;9.984;2022-12-18T07:13:34;65.10;;;23.90;;
49614;SDS011;35517;45.272;9.984;2022-12-18T07:16:06;52.40;;;24.15;;
49614;SDS011;35517;45.272;9.984;2022-12-18T07:18:32;46.38;;;24.27;;
49614;SDS011;35517;45.272;9.984;2022-12-18T07:21:02;52.53;;;22.38;;
49614;SDS011;35517;45.272;9.984;2022-12-18T07:23:29;66.88;;;22.75;;
49614;SDS011;35517;45.272;9.984;2022-12-18T07:26:00;53.85;;;24.60;;
49614;SDS011;35517;45.272;9.984;2022-12-18T07:28:27;93.63;;;37.85;;
49614;SDS011;35517;45.272;9.984;2022-12-18T07:30:54;348.17;;;146.98;;
49614;SDS011;35517;45.272;9.984;2022-12-18T07:33:21;114.63;;;46.75;;
49614;SDS011;35517;45.272;9.984;2022-12-18T07:35:47;86.57;;;32.35;;
49614;SDS011;35517;45.272;9.984;2022-12-18T07:38:14;73.38;;;33.17;;
49614;SDS011;35517;45.272;9.984;2022-12-18T07:40:40;75.63;;;27.58;;
49614;SDS011;35517;45.272;9.984;2022-12-18T07:43:10;61.75;;;30.23;;
49614;SDS011;35517;45.272;9.984;2022-12-18T07:45:37;69.57;;;26.13;;
49614;SDS011;35517;45.272;9.984;2022-12-18T07:48:04;45.83;;;22.48;;
49614;SDS011;35517;45.272;9.984;2022-12-18T07:50:30;36.22;;;19.00;;
49614;SDS011;35517;45.272;9.984;2022-12-18T07:52:57;53.22;;;20.17;;
49614;SDS011;35517;45.272;9.984;2022-12-18T07:55:23;52.30;;;21.77;;
49614;SDS011;35517;45.272;9.984;2022-12-18T07:57:50;53.78;;;24.35;;
49614;SDS011;35517;45.272;9.984;2022-12-18T08:00:17;56.90;;;21.20;;
49614;SDS011;35517;45.272;9.984;2022-12-18T08:02:48;52.22;;;24.63;;
49614;SDS011;35517;45.272;9.984;2022-12-18T08:05:15;50.65;;;21.13;;
49614;SDS011;35517;45.272;9.984;2022-12-18T08:07:42;46.17;;;21.25;;
49614;SDS011;35517;45.272;9.984;2022-12-18T08:10:08;51.72;;;22.88;;
49614;SDS011;35517;45.272;9.984;2022-12-18T08:12:36;50.92;;;22.10;;
49614;SDS011;35517;45.272;9.984;2022-12-18T08:15:03;64.55;;;22.45;;
49614;SDS011;35517;45.272;9.984;2022-12-18T08:17:29;61.35;;;22.25;;
49614;SDS011;35517;45.272;9.984;2022-12-18T08:19:56;50.47;;;21.67;;
49614;SDS011;35517;45.272;9.984;2022-12-18T08:22:22;49.50;;;22.27;;
49614;SDS011;35517;45.272;9.984;2022-12-18T08:24:49;53.20;;;22.27;;
49614;SDS011;35517;45.272;9.984;2022-12-18T08:27:21;50.47;;;23.83;;
49614;SDS011;35517;45.272;9.984;2022-12-18T08:29:48;54.83;;;21.77;;
49614;SDS011;35517;45.272;9.984;2022-12-18T08:32:15;54.75;;;21.95;;
49614;SDS011;35517;45.272;9.984;2022-12-18T08:34:54;53.15;;;23.17;;
49614;SDS011;35517;45.272;9.984;2022-12-18T08:37:20;52.97;;;24.55;;
49614;SDS011;35517;45.272;9.984;2022-12-18T08:39:47;61.25;;;24.75;;
49614;SDS011;35517;45.272;9.984;2022-12-18T08:42:16;52.67;;;22.05;;
49614;SDS011;35517;45.272;9.984;2022-12-18T08:45:01;56.72;;;24.30;;
49614;SDS011;35517;45.272;9.984;2022-12-18T08:47:28;77.13;;;33.72;;
49614;SDS011;35517;45.272;9.984;2022-12-18T08:49:57;80.28;;;35.65;;
49614;SDS011;35517;45.272;9.984;2022-12-18T08:52:31;76.05;;;30.92;;
49614;SDS011;35517;45.272;9.984;2022-12-18T08:54:58;226.85;;;93.32;;
49614;SDS011;35517;45.272;9.984;2022-12-18T08:57:24;89.78;;;36.15;;
49614;SDS011;35517;45.272;9.984;2022-12-18T08:59:51;60.53;;;24.40;;
49614;SDS011;35517;45.272;9.984;2022-12-18T09:02:19;60.72;;;25.05;;
49614;SDS011;35517;45.272;9.984;2022-12-18T09:04:47;53.45;;;25.05;;
49614;SDS011;35517;45.272;9.984;2022-12-18T09:07:14;59.17;;;23.65;;
49614;SDS011;35517;45.272;9.984;2022-12-18T09:09:41;45.38;;;23.80;;
49614;SDS011;35517;45.272;9.984;2022-12-18T09:12:08;50.15;;;21.95;;
49614;SDS011;35517;45.272;9.984;2022-12-18T09:14:35;47.55;;;21.80;;
49614;SDS011;35517;45.272;9.984;2022-12-18T09:17:05;47.15;;;22.98;;
49614;SDS011;35517;45.272;9.984;2022-12-18T09:19:37;49.38;;;23.77;;
49614;SDS011;35517;45.272;9.984;2022-12-18T09:22:03;58.38;;;25.13;;
49614;SDS011;35517;45.272;9.984;2022-12-18T09:24:30;54.50;;;23.55;;
49614;SDS011;35517;45.272;9.984;2022-12-18T09:26:56;51.05;;;25.42;;
49614;SDS011;35517;45.272;9.984;2022-12-18T09:29:23;53.42;;;23.73;;
49614;SDS011;35517;45.272;9.984;2022-12-18T09:31:50;53.17;;;26.20;;
49614;SDS011;35517;45.272;9.984;2022-12-18T09:34:16;56.03;;;27.42;;
49614;SDS011;35517;45.272;9.984;2022-12-18T09:36:43;48.80;;;23.80;;
49614;SDS011;35517;45.272;9.984;2022-12-18T09:39:19;51.90;;;24.50;;
49614;SDS011;35517;45.272;9.984;2022-12-18T09:41:46;54.20;;;25.83;;
49614;SDS011;35517;45.272;9.984;2022-12-18T09:50:50;51.33;;;24.55;;
49614;SDS011;35517;45.272;9.984;2022-12-18T09:52:58;48.03;;;22.55;;
49614;SDS011;35517;45.272;9.984;2022-12-18T09:55:59;47.17;;;25.52;;
49614;SDS011;35517;45.272;9.984;2022-12-18T10:01:16;38.45;;;20.25;;
49614;SDS011;35517;45.272;9.984;2022-12-18T10:03:44;41.75;;;20.92;;
49614;SDS011;35517;45.272;9.984;2022-12-18T10:06:31;42.80;;;19.92;;
49614;SDS011;35517;45.272;9.984;2022-12-18T10:20:16;42.20;;;20.75;;
49614;SDS011;35517;45.272;9.984;2022-12-18T10:22:47;39.97;;;21.33;;
49614;SDS011;35517;45.272;9.984;2022-12-18T10:30:49;33.97;;;17.98;;
49614;SDS011;35517;45.272;9.984;2022-12-18T10:33:20;32.25;;;19.48;;
49614;SDS011;35517;45.272;9.984;2022-12-18T10:35:47;36.20;;;19.15;;
49614;SDS011;35517;45.272;9.984;2022-12-18T10:40:49;34.53;;;18.95;;
49614;SDS011;35517;45.272;9.984;2022-12-18T10:43:19;33.97;;;19.20;;
49614;SDS011;35517;45.272;9.984;2022-12-18T10:46:12;37.78;;;20.80;;
49614;SDS011;35517;45.272;9.984;2022-12-18T10:51:08;30.08;;;15.95;;
49614;SDS011;35517;45.272;9.984;2022-12-18T10:53:36;41.13;;;23.08;;
49614;SDS011;35517;45.272;9.984;2022-12-18T10:56:04;42.40;;;25.80;;
49614;SDS011;35517;45.272;9.984;2022-12-18T10:58:32;55.97;;;31.17;;
49614;SDS011;35517;45.272;9.984;2022-12-18T11:01:15;36.97;;;20.90;;
49614;SDS011;35517;45.272;9.984;2022-12-18T11:06:18;52.53;;;27.23;;
49614;SDS011;35517;45.272;9.984;2022-12-18T11:09:00;41.00;;;21.63;;
49614;SDS011;35517;45.272;9.984;2022-12-18T11:11:26;37.83;;;21.08;;
49614;SDS011;35517;45.272;9.984;2022-12-18T11:16:59;52.88;;;26.15;;
49614;SDS011;35517;45.272;9.984;2022-12-18T11:19:43;38.30;;;20.67;;
49614;SDS011;35517;45.272;9.984;2022-12-18T11:22:29;36.45;;;21.20;;
49614;SDS011;35517;45.272;9.984;2022-12-18T11:27:25;30.83;;;19.20;;
49614;SDS011;35517;45.272;9.984;2022-12-18T11:30:36;32.67;;;19.50;;
49614;SDS011;35517;45.272;9.984;2022-12-18T11:32:43;35.35;;;20.25;;
49614;SDS011;35517;45.272;9.984;2022-12-18T11:37:59;32.70;;;18.98;;
49614;SDS011;35517;45.272;9.984;2022-12-18T11:40:36;33.92;;;20.67;;
49614;SDS011;35517;45.272;9.984;2022-12-18T11:45:55;29.63;;;18.00;;
49614;SDS011;35517;45.272;9.984;2022-12-18T11:48:36;30.17;;;18.65;;
49614;SDS011;35517;45.272;9.984;2022-12-18T11:51:04;31.50;;;17.25;;
49614;SDS011;35517;45.272;9.984;2022-12-18T11:53:34;30.38;;;18.73;;
49614;SDS011;35517;45.272;9.984;2022-12-18T12:01:09;29.33;;;17.30;;
49614;SDS011;35517;45.272;9.984;2022-12-18T12:06:21;26.73;;;15.98;;
49614;SDS011;35517;45.272;9.984;2022-12-18T12:11:32;32.47;;;18.88;;
49614;SDS011;35517;45.272;9.984;2022-12-18T12:21:58;28.10;;;17.92;;
49614;SDS011;35517;45.272;9.984;2022-12-18T12:27:22;33.72;;;22.13;;
49614;SDS011;35517;45.272;9.984;2022-12-18T12:40:35;27.00;;;16.48;;
49614;SDS011;35517;45.272;9.984;2022-12-18T12:45:46;27.42;;;17.65;;
49614;SDS011;35517;45.272;9.984;2022-12-18T12:48:27;30.77;;;18.25;;
49614;SDS011;35517;45.272;9.984;2022-12-18T12:50:59;30.05;;;18.20;;
49614;SDS011;35517;45.272;9.984;2022-12-18T12:53:31;29.05;;;17.52;;
49614;SDS011;35517;45.272;9.984;2022-12-18T12:55:59;29.40;;;18.25;;
49614;SDS011;35517;45.272;9.984;2022-12-18T13:04:14;29.95;;;16.98;;
49614;SDS011;35517;45.272;9.984;2022-12-18T13:09:31;31.77;;;19.23;;
49614;SDS011;35517;45.272;9.984;2022-12-18T13:12:15;31.38;;;18.35;;
49614;SDS011;35517;45.272;9.984;2022-12-18T13:15:20;30.40;;;18.17;;
49614;SDS011;35517;45.272;9.984;2022-12-18T13:17:47;31.75;;;18.75;;
49614;SDS011;35517;45.272;9.984;2022-12-18T13:20:14;27.95;;;16.67;;
49614;SDS011;35517;45.272;9.984;2022-12-18T13:22:48;28.42;;;17.38;;
49614;SDS011;35517;45.272;9.984;2022-12-18T13:25:34;36.22;;;20.63;;
49614;SDS011;35517;45.272;9.984;2022-12-18T13:28:14;30.08;;;18.17;;
49614;SDS011;35517;45.272;9.984;2022-12-18T13:38:36;28.90;;;18.88;;
49614;SDS011;35517;45.272;9.984;2022-12-18T13:43:41;24.52;;;16.48;;
49614;SDS011;35517;45.272;9.984;2022-12-18T13:46:19;34.55;;;20.65;;
49614;SDS011;35517;45.272;9.984;2022-12-18T13:51:19;30.23;;;19.35;;
49614;SDS011;35517;45.272;9.984;2022-12-18T13:56:44;29.75;;;18.85;;
49614;SDS011;35517;45.272;9.984;2022-12-18T13:59:12;31.95;;;18.88;;
49614;SDS011;35517;45.272;9.984;2022-12-18T14:01:55;30.20;;;19.27;;
49614;SDS011;35517;45.272;9.984;2022-12-18T14:04:30;32.40;;;19.30;;
49614;SDS011;35517;45.272;9.984;2022-12-18T14:09:57;30.65;;;18.35;;
49614;SDS011;35517;45.272;9.984;2022-12-18T14:12:30;31.50;;;21.10;;
49614;SDS011;35517;45.272;9.984;2022-12-18T14:15:34;31.75;;;18.95;;
49614;SDS011;35517;45.272;9.984;2022-12-18T14:20:54;34.13;;;18.15;;
49614;SDS011;35517;45.272;9.984;2022-12-18T14:23:33;29.48;;;18.40;;
49614;SDS011;35517;45.272;9.984;2022-12-18T14:28:48;30.92;;;17.88;;
49614;SDS011;35517;45.272;9.984;2022-12-18T14:31:20;29.77;;;18.50;;
49614;SDS011;35517;45.272;9.984;2022-12-18T14:33:49;27.92;;;17.70;;
49614;SDS011;35517;45.272;9.984;2022-12-18T14:36:28;31.58;;;20.15;;
49614;SDS011;35517;45.272;9.984;2022-12-18T14:38:58;32.80;;;20.00;;
49614;SDS011;35517;45.272;9.984;2022-12-18T14:41:25;38.10;;;20.73;;
49614;SDS011;35517;45.272;9.984;2022-12-18T14:43:55;32.13;;;19.27;;
49614;SDS011;35517;45.272;9.984;2022-12-18T14:46:39;32.30;;;19.90;;
49614;SDS011;35517;45.272;9.984;2022-12-18T14:51:58;34.70;;;20.15;;
49614;SDS011;35517;45.272;9.984;2022-12-18T14:54:37;56.17;;;32.53;;
49614;SDS011;35517;45.272;9.984;2022-12-18T14:57:06;40.58;;;23.05;;
49614;SDS011;35517;45.272;9.984;2022-12-18T14:59:43;38.45;;;22.60;;
49614;SDS011;35517;45.272;9.984;2022-12-18T15:02:21;31.05;;;19.08;;
49614;SDS011;35517;45.272;9.984;2022-12-18T15:04:59;45.40;;;26.30;;
49614;SDS011;35517;45.272;9.984;2022-12-18T15:07:26;45.15;;;27.33;;
49614;SDS011;35517;45.272;9.984;2022-12-18T15:12:33;43.75;;;22.98;;
49614;SDS011;35517;45.272;9.984;2022-12-18T15:15:00;46.55;;;23.80;;
49614;SDS011;35517;45.272;9.984;2022-12-18T15:17:29;46.42;;;22.90;;
49614;SDS011;35517;45.272;9.984;2022-12-18T15:20:03;49.50;;;24.52;;
49614;SDS011;35517;45.272;9.984;2022-12-18T15:22:37;51.85;;;26.50;;
49614;SDS011;35517;45.272;9.984;2022-12-18T15:25:39;53.55;;;23.98;;
49614;SDS011;35517;45.272;9.984;2022-12-18T15:27:59;46.08;;;25.80;;
49614;SDS011;35517;45.272;9.984;2022-12-18T15:30:25;64.10;;;31.23;;
49614;SDS011;35517;45.272;9.984;2022-12-18T15:33:27;68.80;;;36.70;;
49614;SDS011;35517;45.272;9.984;2022-12-18T15:35:45;43.28;;;24.15;;
49614;SDS011;35517;45.272;9.984;2022-12-18T15:38:20;48.03;;;24.48;;
49614;SDS011;35517;45.272;9.984;2022-12-18T15:40:46;38.10;;;21.02;;
49614;SDS011;35517;45.272;9.984;2022-12-18T15:43:15;44.28;;;24.55;;
49614;SDS011;35517;45.272;9.984;2022-12-18T15:48:29;36.97;;;22.23;;
49614;SDS011;35517;45.272;9.984;2022-12-18T15:50:56;39.58;;;20.92;;
49614;SDS011;35517;45.272;9.984;2022-12-18T15:53:53;38.45;;;24.58;;
49614;SDS011;35517;45.272;9.984;2022-12-18T15:56:20;46.17;;;27.65;;
49614;SDS011;35517;45.272;9.984;2022-12-18T15:59:13;45.65;;;24.00;;
49614;SDS011;35517;45.272;9.984;2022-12-18T16:01:42;32.70;;;20.05;;
49614;SDS011;35517;45.272;9.984;2022-12-18T16:04:10;31.80;;;19.25;;
49614;SDS011;35517;45.272;9.984;2022-12-18T16:06:38;38.20;;;21.95;;
49614;SDS011;35517;45.272;9.984;2022-12-18T16:09:05;36.63;;;19.60;;
49614;SDS011;35517;45.272;9.984;2022-12-18T16:11:32;47.33;;;21.80;;
49614;SDS011;35517;45.272;9.984;2022-12-18T16:14:21;43.53;;;24.20;;
49614;SDS011;35517;45.272;9.984;2022-12-18T16:16:51;43.05;;;24.05;;
49614;SDS011;35517;45.272;9.984;2022-12-18T16:19:22;42.72;;;23.60;;
49614;SDS011;35517;45.272;9.984;2022-12-18T16:21:49;38.08;;;23.00;;
49614;SDS011;35517;45.272;9.984;2022-12-18T16:24:24;41.13;;;22.52;;
49614;SDS011;35517;45.272;9.984;2022-12-18T16:26:51;36.08;;;20.27;;
49614;SDS011;35517;45.272;9.984;2022-12-18T16:29:20;34.97;;;20.45;;
49614;SDS011;35517;45.272;9.984;2022-12-18T16:31:56;39.92;;;22.10;;
49614;SDS011;35517;45.272;9.984;2022-12-18T16:34:27;42.53;;;24.02;;
49614;SDS011;35517;45.272;9.984;2022-12-18T16:36:58;43.42;;;22.83;;
49614;SDS011;35517;45.272;9.984;2022-12-18T16:39:25;40.58;;;24.83;;
49614;SDS011;35517;45.272;9.984;2022-12-18T16:41:51;43.40;;;24.38;;
49614;SDS011;35517;45.272;9.984;2022-12-18T16:44:18;37.20;;;22.05;;
49614;SDS011;35517;45.272;9.984;2022-12-18T16:46:45;38.70;;;22.23;;
49614;SDS011;35517;45.272;9.984;2022-12-18T16:51:58;48.90;;;25.83;;
49614;SDS011;35517;45.272;9.984;2022-12-18T16:54:24;43.70;;;24.20;;
49614;SDS011;35517;45.272;9.984;2022-12-18T16:56:51;48.55;;;25.48;;
49614;SDS011;35517;45.272;9.984;2022-12-18T16:59:19;46.13;;;25.55;;
49614;SDS011;35517;45.272;9.984;2022-12-18T17:01:46;44.05;;;24.50;;
49614;SDS011;35517;45.272;9.984;2022-12-18T17:04:13;46.70;;;24.92;;
49614;SDS011;35517;45.272;9.984;2022-12-18T17:06:41;46.95;;;22.60;;